createdAt,value
2018-05-07T00:02:18.387Z,12.60
2018-05-07T00:04:45.929Z,12.50
2018-05-07T00:07:13.500Z,12.50
2018-05-07T00:09:41.063Z,12.30
2018-05-07T00:12:08.597Z,12.20
2018-05-07T00:14:36.159Z,12.10
2018-05-07T00:17:03.683Z,12.30
2018-05-07T00:19:31.978Z,12.60
2018-05-07T00:21:59.516Z,12.50
2018-05-07T00:24:27.806Z,12.40
2018-05-07T00:26:56.112Z,12.60
2018-05-07T00:29:23.672Z,12.50
2018-05-07T00:31:51.193Z,12.40
2018-05-07T00:34:19.490Z,12.10
2018-05-07T00:36:47.986Z,12.10
2018-05-07T00:39:15.493Z,12.10
2018-05-07T00:41:43.005Z,12.30
2018-05-07T00:44:10.543Z,12.30
2018-05-07T00:46:38.102Z,12.40
2018-05-07T00:49:05.622Z,12.40
2018-05-07T00:51:33.158Z,12.40
2018-05-07T00:54:00.697Z,12.10
2018-05-07T00:56:28.255Z,12.00
2018-05-07T00:58:55.796Z,12.10
2018-05-07T01:01:23.323Z,12.20
2018-05-07T01:03:51.605Z,12.20
2018-05-07T01:06:19.927Z,12.00
2018-05-07T01:08:47.445Z,11.90
2018-05-07T01:11:15.742Z,11.60
2018-05-07T01:13:43.282Z,11.60
2018-05-07T01:16:11.555Z,11.60
2018-05-07T01:18:39.851Z,11.50
2018-05-07T01:21:07.406Z,11.50
2018-05-07T01:23:34.917Z,11.40
2018-05-07T01:26:02.445Z,11.40
2018-05-07T01:28:30.000Z,11.20
2018-05-07T01:30:57.524Z,11.10
2018-05-07T01:33:25.058Z,10.90
2018-05-07T01:35:52.603Z,10.80
2018-05-07T01:38:20.125Z,10.90
2018-05-07T01:40:47.643Z,10.80
2018-05-07T01:43:16.059Z,10.90
2018-05-07T01:45:43.569Z,10.90
2018-05-07T01:48:12.576Z,10.80
2018-05-07T01:50:41.193Z,10.80
2018-05-07T01:53:08.712Z,10.70
2018-05-07T01:55:36.994Z,11.10
2018-05-07T01:58:05.344Z,11.10
2018-05-07T02:00:32.869Z,11.10
2018-05-07T02:03:00.405Z,11.00
2018-05-07T02:05:27.954Z,10.80
2018-05-07T02:07:56.242Z,10.60
2018-05-07T02:10:23.754Z,10.50
2018-05-07T02:12:52.083Z,10.50
2018-05-07T02:15:19.616Z,10.40
2018-05-07T02:17:47.897Z,10.40
2018-05-07T02:20:16.293Z,10.20
2018-05-07T02:22:43.867Z,10.20
2018-05-07T02:25:11.381Z,10.20
2018-05-07T02:27:39.683Z,10.50
2018-05-07T02:30:07.262Z,10.40
2018-05-07T02:32:34.785Z,10.40
2018-05-07T02:35:03.088Z,10.40
2018-05-07T02:37:30.597Z,10.30
2018-05-07T02:39:58.894Z,10.40
2018-05-07T02:42:26.428Z,10.40
2018-05-07T02:44:53.947Z,10.40
2018-05-07T02:47:21.466Z,10.30
2018-05-07T02:49:49.067Z,10.30
2018-05-07T02:52:16.593Z,10.30
2018-05-07T02:54:44.108Z,10.10
2018-05-07T02:57:11.754Z,10.10
2018-05-07T02:59:39.307Z,10.00
2018-05-07T03:02:06.874Z,10.10
2018-05-07T03:04:34.506Z,10.20
2018-05-07T03:07:03.504Z,10.30
2018-05-07T03:09:31.024Z,10.40
2018-05-07T03:11:59.435Z,10.10
2018-05-07T03:14:27.148Z,10.10
2018-05-07T03:16:54.790Z,9.90
2018-05-07T03:19:23.934Z,9.60
2018-05-07T03:21:51.520Z,9.60
2018-05-07T03:24:19.085Z,9.70
2018-05-07T03:26:46.740Z,9.80
2018-05-07T03:29:14.268Z,9.80
2018-05-07T03:31:41.792Z,9.70
2018-05-07T03:34:09.340Z,9.60
2018-05-07T03:36:38.394Z,9.30
2018-05-07T03:39:05.966Z,9.30
2018-05-07T03:41:33.519Z,9.30
2018-05-07T03:44:01.292Z,9.20
2018-05-07T03:46:28.827Z,9.20
2018-05-07T03:48:56.372Z,9.20
2018-05-07T03:51:24.659Z,9.40
2018-05-07T03:53:52.238Z,9.30
2018-05-07T03:56:19.798Z,9.40
2018-05-07T03:58:47.304Z,9.40
2018-05-07T04:01:15.589Z,9.40
2018-05-07T04:03:43.913Z,9.60
2018-05-07T04:06:11.431Z,9.50
2018-05-07T04:08:39.738Z,10.00
2018-05-07T04:11:07.291Z,9.90
2018-05-07T04:13:34.823Z,10.10
2018-05-07T04:16:02.397Z,10.30
2018-05-07T04:18:41.740Z,10.30
2018-05-07T04:21:14.798Z,10.30
2018-05-07T04:23:55.178Z,10.70
2018-05-07T04:26:22.724Z,10.70
2018-05-07T04:28:50.240Z,10.80
2018-05-07T04:31:17.878Z,10.90
2018-05-07T04:33:45.492Z,11.00
2018-05-07T04:36:12.986Z,11.20
2018-05-07T04:38:40.563Z,11.30
2018-05-07T04:41:08.076Z,11.40
2018-05-07T04:43:35.667Z,11.50
2018-05-07T04:46:03.225Z,11.50
2018-05-07T04:48:30.777Z,11.60
2018-05-07T04:50:58.302Z,11.80
2018-05-07T04:53:26.626Z,12.00
2018-05-07T04:55:54.180Z,11.90
2018-05-07T04:58:21.709Z,12.10
2018-05-07T05:00:49.259Z,12.10
2018-05-07T05:03:17.546Z,12.30
2018-05-07T05:05:45.125Z,12.20
2018-05-07T05:08:12.677Z,12.20
2018-05-07T05:10:40.246Z,12.20
2018-05-07T05:13:07.780Z,12.30
2018-05-07T05:15:35.337Z,12.40
2018-05-07T05:18:02.909Z,12.50
2018-05-07T05:20:30.427Z,12.60
2018-05-07T05:22:58.755Z,12.80
2018-05-07T05:25:26.313Z,12.80
2018-05-07T05:27:53.841Z,12.90
2018-05-07T05:30:21.377Z,13.00
2018-05-07T05:32:49.716Z,13.00
2018-05-07T05:35:17.245Z,13.00
2018-05-07T05:37:44.787Z,13.10
2018-05-07T05:40:13.075Z,13.20
2018-05-07T05:42:40.670Z,13.10
2018-05-07T05:45:08.226Z,13.30
2018-05-07T05:47:35.744Z,13.50
2018-05-07T05:50:03.299Z,13.50
2018-05-07T05:52:30.857Z,13.60
2018-05-07T05:54:58.445Z,13.80
2018-05-07T05:57:26.421Z,14.00
2018-05-07T05:59:53.966Z,14.00
2018-05-07T06:02:21.492Z,14.10
2018-05-07T06:04:49.805Z,14.30
2018-05-07T06:07:17.366Z,14.20
2018-05-07T06:09:44.887Z,14.50
2018-05-07T06:12:13.187Z,14.70
2018-05-07T06:14:40.823Z,14.60
2018-05-07T06:17:08.321Z,14.80
2018-05-07T06:19:35.806Z,15.00
2018-05-07T06:22:03.477Z,15.20
2018-05-07T06:24:31.094Z,15.30
2018-05-07T06:26:58.619Z,15.60
2018-05-07T06:29:26.941Z,15.90
2018-05-07T06:31:54.504Z,15.80
2018-05-07T06:34:22.088Z,16.10
2018-05-07T06:36:49.611Z,16.20
2018-05-07T06:39:17.145Z,16.40
2018-05-07T06:41:44.728Z,16.50
2018-05-07T06:44:12.279Z,16.60
2018-05-07T06:46:39.819Z,16.60
2018-05-07T06:49:07.379Z,16.60
2018-05-07T06:51:34.954Z,16.80
2018-05-07T06:54:02.482Z,17.00
2018-05-07T06:56:30.774Z,17.10
2018-05-07T06:58:58.321Z,17.10
2018-05-07T07:01:26.618Z,17.20
2018-05-07T07:03:54.179Z,17.10
2018-05-07T07:06:21.738Z,17.20
2018-05-07T07:08:49.260Z,17.30
2018-05-07T07:11:17.567Z,17.40
2018-05-07T07:13:45.143Z,17.30
2018-05-07T07:16:12.676Z,17.50
2018-05-07T07:18:40.260Z,17.60
2018-05-07T07:21:08.032Z,17.60
2018-05-07T07:23:35.582Z,17.70
2018-05-07T07:26:03.135Z,17.80
2018-05-07T07:28:30.709Z,17.90
2018-05-07T07:30:58.244Z,18.00
2018-05-07T07:33:25.782Z,18.10
2018-05-07T07:35:54.196Z,18.20
2018-05-07T07:38:21.715Z,18.20
2018-05-07T07:40:50.033Z,18.30
2018-05-07T07:43:17.591Z,18.20
2018-05-07T07:45:45.130Z,18.40
2018-05-07T07:48:12.661Z,18.50
2018-05-07T07:50:41.011Z,19.00
2018-05-07T07:53:08.528Z,18.90
2018-05-07T07:55:36.056Z,19.00
2018-05-07T07:58:04.371Z,19.30
2018-05-07T08:00:31.901Z,19.20
2018-05-07T08:02:59.432Z,19.30
2018-05-07T08:05:27.747Z,19.60
2018-05-07T08:07:55.267Z,19.50
2018-05-07T08:10:23.560Z,19.80
2018-05-07T08:12:51.865Z,19.90
2018-05-07T08:15:19.425Z,19.90
2018-05-07T08:17:46.960Z,20.10
2018-05-07T08:20:14.521Z,20.10
2018-05-07T08:22:42.288Z,20.10
2018-05-07T08:25:09.793Z,20.20
2018-05-07T08:27:37.332Z,20.30
2018-05-07T08:30:04.882Z,20.40
2018-05-07T08:32:32.401Z,20.50
2018-05-07T08:35:00.730Z,20.70
2018-05-07T08:37:28.240Z,20.60
2018-05-07T08:39:56.524Z,20.90
2018-05-07T08:42:24.073Z,20.90
2018-05-07T08:44:51.669Z,21.10
2018-05-07T08:47:19.193Z,21.20
2018-05-07T08:49:47.600Z,21.30
2018-05-07T08:52:15.113Z,21.30
2018-05-07T08:54:42.634Z,21.40
2018-05-07T08:57:10.194Z,21.40
2018-05-07T08:59:37.721Z,21.60
2018-05-07T09:02:05.326Z,21.60
2018-05-07T09:04:32.859Z,21.80
2018-05-07T09:07:00.374Z,21.80
2018-05-07T09:09:28.656Z,21.80
2018-05-07T09:11:56.973Z,22.00
2018-05-07T09:14:24.504Z,21.90
2018-05-07T09:16:52.088Z,22.10
2018-05-07T09:19:19.636Z,22.20
2018-05-07T09:21:47.212Z,22.30
2018-05-07T09:24:14.727Z,22.30
2018-05-07T09:26:42.292Z,22.30
2018-05-07T09:29:09.823Z,22.50
2018-05-07T09:31:37.507Z,22.70
2018-05-07T09:34:04.993Z,22.60
2018-05-07T09:36:32.560Z,22.70
2018-05-07T09:39:00.086Z,22.80
2018-05-07T09:41:27.672Z,23.00
2018-05-07T09:43:55.199Z,23.20
2018-05-07T09:46:22.724Z,23.30
2018-05-07T09:48:50.377Z,23.40
2018-05-07T09:51:17.936Z,23.40
2018-05-07T09:53:45.479Z,23.40
2018-05-07T09:56:13.022Z,23.60
2018-05-07T10:01:35.152Z,23.80
2018-05-07T10:04:02.764Z,23.90
2018-05-07T10:06:30.284Z,23.80
2018-05-07T10:08:57.829Z,23.80
2018-05-07T10:11:25.411Z,23.80
2018-05-07T10:13:52.936Z,24.00
2018-05-07T10:16:20.507Z,24.20
2018-05-07T10:18:48.074Z,24.30
2018-05-07T10:21:15.603Z,24.40
2018-05-07T10:23:43.905Z,24.30
2018-05-07T10:26:11.423Z,24.20
2018-05-07T10:28:38.938Z,24.00
2018-05-07T10:31:06.507Z,24.10
2018-05-07T10:33:34.038Z,24.30
2018-05-07T10:36:01.571Z,24.30
2018-05-07T10:38:29.878Z,24.50
2018-05-07T10:40:57.396Z,24.40
2018-05-07T10:43:26.068Z,24.70
2018-05-07T10:45:53.597Z,24.60
2018-05-07T10:48:21.109Z,24.70
2018-05-07T10:50:49.422Z,24.90
2018-05-07T10:53:17.073Z,24.80
2018-05-07T10:55:44.606Z,25.00
2018-05-07T10:58:12.172Z,25.10
2018-05-07T11:00:39.752Z,25.10
2018-05-07T11:03:07.313Z,25.10
2018-05-07T11:05:34.840Z,25.20
2018-05-07T11:08:02.487Z,25.00
2018-05-07T11:10:30.851Z,25.10
2018-05-07T11:12:59.874Z,25.10
2018-05-07T11:15:27.412Z,25.20
2018-05-07T11:17:55.751Z,25.50
2018-05-07T11:20:23.293Z,25.50
2018-05-07T11:22:50.830Z,25.60
2018-05-07T11:25:18.348Z,25.60
2018-05-07T11:27:45.898Z,25.80
2018-05-07T11:30:13.432Z,26.10
2018-05-07T11:32:40.963Z,26.10
2018-05-07T11:35:08.541Z,26.20
2018-05-07T11:37:36.081Z,26.20
2018-05-07T11:40:03.648Z,26.30
2018-05-07T11:42:31.168Z,26.20
2018-05-07T11:44:58.875Z,25.80
2018-05-07T11:47:26.415Z,25.70
2018-05-07T11:49:53.946Z,26.00
2018-05-07T11:52:22.303Z,26.40
2018-05-07T11:54:49.838Z,26.40
2018-05-07T11:57:17.360Z,26.50
2018-05-07T11:59:45.666Z,26.70
2018-05-07T12:02:13.214Z,26.70
2018-05-07T12:04:40.775Z,26.70
2018-05-07T12:07:08.748Z,26.90
2018-05-07T12:09:36.409Z,26.80
2018-05-07T12:12:03.957Z,27.10
2018-05-07T12:14:31.533Z,27.30
2018-05-07T12:16:59.079Z,27.60
2018-05-07T12:19:26.607Z,27.90
2018-05-07T12:21:54.909Z,28.90
2018-05-07T12:24:22.463Z,28.80
2018-05-07T12:26:49.990Z,29.60
2018-05-07T12:29:18.290Z,30.90
2018-05-07T12:31:46.012Z,30.70
2018-05-07T12:34:13.419Z,31.70
2018-05-07T12:36:40.995Z,31.80
2018-05-07T12:39:08.529Z,32.50
2018-05-07T12:41:36.121Z,33.10
2018-05-07T12:44:03.739Z,33.80
2018-05-07T12:46:32.125Z,34.00
2018-05-07T12:48:59.643Z,33.80
2018-05-07T12:51:27.201Z,34.50
2018-05-07T12:53:56.356Z,35.60
2018-05-07T12:56:23.949Z,35.50
2018-05-07T12:58:51.474Z,35.50
2018-05-07T13:01:19.035Z,36.20
2018-05-07T13:03:46.567Z,36.10
2018-05-07T13:06:14.089Z,34.90
2018-05-07T13:08:41.713Z,35.30
2018-05-07T13:11:09.279Z,35.90
2018-05-07T13:13:36.826Z,36.10
2018-05-07T13:16:04.377Z,35.40
2018-05-07T13:18:31.950Z,35.30
2018-05-07T13:20:59.507Z,34.20
2018-05-07T13:23:27.053Z,35.10
2018-05-07T13:25:54.576Z,34.40
2018-05-07T13:28:22.912Z,34.70
2018-05-07T13:30:50.468Z,34.60
2018-05-07T13:33:17.996Z,35.80
2018-05-07T13:35:45.588Z,36.80
2018-05-07T13:38:13.135Z,36.60
2018-05-07T13:40:40.684Z,37.50
2018-05-07T13:43:08.264Z,37.60
2018-05-07T13:45:35.812Z,37.70
2018-05-07T13:48:03.381Z,37.10
2018-05-07T13:50:30.926Z,36.80
2018-05-07T13:52:58.502Z,36.60
2018-05-07T13:55:26.061Z,36.90
2018-05-07T13:57:53.703Z,37.30
2018-05-07T14:00:21.273Z,37.30
2018-05-07T14:02:48.822Z,37.30
2018-05-07T14:05:16.343Z,36.60
2018-05-07T14:07:44.665Z,36.70
2018-05-07T14:10:12.185Z,36.70
2018-05-07T14:12:40.487Z,37.30
2018-05-07T14:15:08.064Z,37.20
2018-05-07T14:17:35.600Z,37.40
2018-05-07T14:20:03.149Z,37.90
2018-05-07T14:22:30.729Z,37.40
2018-05-07T14:24:58.292Z,38.10
2018-05-07T14:27:25.809Z,38.20
2018-05-07T14:29:54.125Z,38.00
2018-05-07T14:32:21.683Z,37.90
2018-05-07T14:34:49.241Z,37.90
2018-05-07T14:37:16.815Z,38.20
2018-05-07T14:39:44.365Z,38.00
2018-05-07T14:42:11.876Z,37.80
2018-05-07T14:44:40.172Z,37.10
2018-05-07T14:47:07.745Z,37.00
2018-05-07T14:49:35.263Z,37.00
2018-05-07T14:52:03.554Z,37.70
2018-05-07T14:54:31.241Z,37.70
2018-05-07T14:56:58.808Z,38.40
2018-05-07T14:59:26.945Z,38.20
2018-05-07T15:01:55.264Z,38.00
2018-05-07T15:04:22.801Z,38.00
2018-05-07T15:06:50.347Z,37.90
2018-05-07T15:09:17.926Z,37.80
2018-05-07T15:11:45.495Z,37.70
2018-05-07T15:14:23.705Z,37.50
2018-05-07T15:16:51.255Z,37.90
2018-05-07T15:19:18.818Z,38.30
2018-05-07T15:21:46.361Z,37.60
2018-05-07T15:24:13.921Z,37.30
2018-05-07T15:26:41.786Z,37.40
2018-05-07T15:29:09.390Z,37.80
2018-05-07T15:31:36.912Z,37.00
2018-05-07T15:34:04.469Z,37.10
2018-05-07T15:36:31.993Z,37.40
2018-05-07T15:39:00.295Z,37.90
2018-05-07T15:41:27.846Z,37.90
2018-05-07T15:43:55.483Z,36.50
2018-05-07T15:46:22.971Z,37.00
2018-05-07T15:48:50.507Z,37.50
2018-05-07T15:51:18.797Z,37.20
2018-05-07T15:53:46.460Z,37.20
2018-05-07T15:56:13.951Z,37.70
2018-05-07T15:58:41.505Z,37.90
2018-05-07T16:01:09.054Z,37.70
2018-05-07T16:03:36.617Z,37.50
2018-05-07T16:06:04.151Z,37.50
2018-05-07T16:08:31.734Z,38.00
2018-05-07T16:10:59.258Z,38.60
2018-05-07T16:13:26.844Z,39.00
2018-05-07T16:15:54.386Z,38.80
2018-05-07T16:18:21.924Z,38.80
2018-05-07T16:20:50.283Z,38.40
2018-05-07T16:23:18.091Z,38.40
2018-05-07T16:25:47.070Z,37.90
2018-05-07T16:28:14.616Z,37.80
2018-05-07T16:30:42.937Z,38.10
2018-05-07T16:33:10.500Z,38.00
2018-05-07T16:35:38.133Z,37.70
2018-05-07T16:38:05.613Z,37.70
2018-05-07T16:40:33.126Z,37.90
2018-05-07T16:43:01.413Z,37.10
2018-05-07T16:45:28.971Z,37.00
2018-05-07T16:47:57.268Z,37.00
2018-05-07T16:50:24.805Z,36.90
2018-05-07T16:52:53.128Z,37.40
2018-05-07T16:55:20.683Z,37.40
2018-05-07T16:57:48.209Z,37.30
2018-05-07T17:00:15.779Z,36.80
2018-05-07T17:02:43.442Z,36.30
2018-05-07T17:05:13.009Z,36.40
2018-05-07T17:07:41.447Z,36.60
2018-05-07T17:10:09.178Z,36.50
2018-05-07T17:12:36.713Z,36.40
2018-05-07T17:15:05.575Z,35.90
2018-05-07T17:17:33.106Z,35.80
2018-05-07T17:20:00.640Z,35.80
2018-05-07T17:22:28.238Z,35.70
2018-05-07T17:24:55.845Z,35.50
2018-05-07T17:27:24.126Z,36.00
2018-05-07T17:29:52.641Z,35.30
2018-05-07T17:32:20.160Z,35.20
2018-05-07T17:34:48.465Z,35.20
2018-05-07T17:37:16.023Z,35.20
2018-05-07T17:39:43.563Z,35.40
2018-05-07T17:42:11.076Z,34.70
2018-05-07T17:44:50.474Z,34.90
2018-05-07T17:47:29.919Z,34.30
2018-05-07T17:49:57.677Z,33.80
2018-05-07T17:52:25.207Z,33.60
2018-05-07T17:54:53.516Z,33.20
2018-05-07T17:57:21.265Z,33.10
2018-05-07T17:59:48.746Z,33.20
2018-05-07T18:02:16.303Z,33.10
2018-05-07T18:04:43.864Z,32.90
2018-05-07T18:07:11.421Z,33.00
2018-05-07T18:09:38.929Z,32.70
2018-05-07T18:12:07.245Z,32.00
2018-05-07T18:14:34.821Z,31.90
2018-05-07T18:17:02.491Z,31.80
2018-05-07T18:19:30.366Z,30.50
2018-05-07T18:21:58.016Z,29.30
2018-05-07T18:24:25.534Z,28.20
2018-05-07T18:26:53.108Z,27.20
2018-05-07T18:29:20.635Z,26.80
2018-05-07T18:31:48.924Z,25.80
2018-05-07T18:34:16.605Z,25.70
2018-05-07T18:36:44.135Z,25.40
2018-05-07T18:39:12.417Z,25.00
2018-05-07T18:41:39.999Z,24.90
2018-05-07T18:44:07.527Z,24.80
2018-05-07T18:46:35.810Z,24.40
2018-05-07T18:49:03.409Z,24.30
2018-05-07T18:51:30.970Z,24.10
2018-05-07T18:53:58.511Z,23.80
2018-05-07T18:56:26.050Z,23.40
2018-05-07T18:58:53.602Z,23.20
2018-05-07T19:01:21.218Z,22.90
2018-05-07T19:03:48.850Z,22.70
2018-05-07T19:06:16.363Z,22.60
2018-05-07T19:08:44.674Z,22.50
2018-05-07T19:11:12.238Z,22.40
2018-05-07T19:13:39.759Z,22.40
2018-05-07T19:16:08.100Z,22.10
2018-05-07T19:18:35.658Z,22.00
2018-05-07T19:21:03.224Z,22.00
2018-05-07T19:23:31.054Z,21.90
2018-05-07T19:25:58.603Z,21.80
2018-05-07T19:28:26.106Z,21.60
2018-05-07T19:30:53.818Z,21.50
2018-05-07T19:33:21.391Z,21.40
2018-05-07T19:35:48.927Z,21.30
2018-05-07T19:38:16.458Z,21.20
2018-05-07T19:40:44.882Z,20.90
2018-05-07T19:43:12.408Z,20.90
2018-05-07T19:45:40.728Z,20.60
2018-05-07T19:48:08.352Z,20.60
2018-05-07T19:50:35.847Z,20.50
2018-05-07T19:53:03.385Z,20.30
2018-05-07T19:55:30.968Z,20.30
2018-05-07T19:57:58.526Z,20.20
2018-05-07T20:00:26.064Z,20.20
2018-05-07T20:02:53.622Z,20.20
2018-05-07T20:05:21.137Z,20.10
2018-05-07T20:07:48.769Z,20.00
2018-05-07T20:10:16.618Z,20.00
2018-05-07T20:12:44.148Z,19.90
2018-05-07T20:15:12.477Z,19.80
2018-05-07T20:17:40.035Z,19.80
2018-05-07T20:20:07.580Z,19.70
2018-05-07T20:22:35.121Z,19.60
2018-05-07T20:25:02.696Z,19.50
2018-05-07T20:27:30.240Z,19.40
2018-05-07T20:29:57.791Z,19.40
2018-05-07T20:32:25.301Z,19.30
2018-05-07T20:34:52.857Z,19.20
2018-05-07T20:37:20.396Z,19.20
2018-05-07T20:39:47.915Z,19.20
2018-05-07T20:42:16.374Z,19.20
2018-05-07T20:44:44.670Z,19.10
2018-05-07T20:47:12.212Z,19.00
2018-05-07T20:49:40.520Z,19.00
2018-05-07T20:52:08.093Z,18.90
2018-05-07T20:54:35.882Z,18.90
2018-05-07T20:57:03.415Z,18.90
2018-05-07T20:59:30.943Z,18.70
2018-05-07T21:01:58.487Z,18.80
2018-05-07T21:04:28.205Z,18.70
2018-05-07T21:06:55.865Z,18.60
2018-05-07T21:09:24.150Z,18.60
2018-05-07T21:11:51.671Z,18.50
2018-05-07T21:14:19.209Z,18.50
2018-05-07T21:16:46.713Z,18.50
2018-05-07T21:19:15.040Z,18.30
2018-05-07T21:21:42.567Z,18.30
2018-05-07T21:24:10.092Z,18.30
2018-05-07T21:26:38.397Z,18.20
2018-05-07T21:29:05.910Z,18.10
2018-05-07T21:31:34.244Z,17.70
2018-05-07T21:34:01.882Z,17.70
2018-05-07T21:36:30.152Z,17.60
2018-05-07T21:38:58.570Z,17.50
2018-05-07T21:41:27.142Z,17.40
2018-05-07T21:43:55.509Z,17.40
2018-05-07T21:46:23.017Z,17.30
2018-05-07T21:48:50.537Z,17.30
2018-05-07T21:51:18.069Z,17.10
2018-05-07T21:53:46.362Z,16.70
2018-05-07T21:56:13.917Z,16.60
2018-05-07T21:58:41.432Z,16.60
2018-05-07T22:01:08.946Z,16.60
2018-05-07T22:03:36.491Z,16.60
2018-05-07T22:06:04.066Z,16.50
2018-05-07T22:08:31.612Z,16.50
2018-05-07T22:10:59.135Z,16.40
2018-05-07T22:13:27.770Z,15.90
2018-05-07T22:15:55.316Z,15.80
2018-05-07T22:18:22.859Z,16.00
2018-05-07T22:20:50.378Z,16.10
2018-05-07T22:23:17.906Z,16.00
2018-05-07T22:25:45.409Z,16.00
2018-05-07T22:28:12.919Z,15.90
2018-05-07T22:30:40.469Z,15.80
2018-05-07T22:33:07.994Z,15.80
2018-05-07T22:35:36.264Z,15.80
2018-05-07T22:38:04.587Z,15.90
2018-05-07T22:40:32.112Z,15.80
2018-05-07T22:42:59.664Z,15.90
2018-05-07T22:45:27.987Z,16.10
2018-05-07T22:47:55.509Z,16.00
2018-05-07T22:50:23.072Z,16.00
2018-05-07T22:52:50.625Z,16.00
2018-05-07T22:55:20.668Z,16.00
2018-05-07T22:57:48.176Z,16.00
2018-05-07T23:00:15.724Z,16.00
2018-05-07T23:02:43.246Z,16.10
2018-05-07T23:05:10.761Z,16.10
2018-05-07T23:07:39.094Z,16.10
2018-05-07T23:10:06.632Z,16.00
2018-05-07T23:12:34.145Z,16.00
2018-05-07T23:15:02.485Z,15.80
2018-05-07T23:17:30.020Z,15.70
2018-05-07T23:19:57.546Z,15.60
2018-05-07T23:22:25.983Z,15.20
2018-05-07T23:24:53.533Z,15.10
2018-05-07T23:27:21.044Z,15.10
2018-05-07T23:29:49.877Z,15.10
2018-05-07T23:32:17.391Z,15.00
2018-05-07T23:34:45.665Z,15.00
2018-05-07T23:37:13.984Z,14.80
2018-05-07T23:39:41.496Z,14.80
2018-05-07T23:42:09.783Z,14.90
2018-05-07T23:44:38.189Z,14.80
2018-05-07T23:47:05.699Z,14.70
2018-05-07T23:49:33.211Z,14.70
2018-05-07T23:52:00.877Z,14.50
2018-05-07T23:54:28.399Z,14.20
2018-05-07T23:56:56.009Z,13.90
2018-05-07T23:59:23.559Z,13.50
